Time;durP1;ratioP1;P1;durP2;ratioP2;P2;SDS_P1;SDS_P2;PMS_P1;PMS_P2;Temp;Humidity;BMP_temperature;BMP_pressure;BME280_temperature;BME280_humidity;BME280_pressure;Samples;Min_cycle;Max_cycle;Signal;HPM_P1;HPM_P2
2021/04/11 00:00:25;;;;;;;18.20;9.00;;;;;;;2.89;100.00;100295.38;5040632;28;20041;-63
2021/04/11 00:02:52;;;;;;;15.63;8.15;;;;;;;2.86;100.00;100302.69;5041426;28;20084;-63
2021/04/11 00:05:21;;;;;;;21.25;11.43;;;;;;;2.83;100.00;100303.78;5042330;28;20317;-63
2021/04/11 00:07:49;;;;;;;20.38;11.32;;;;;;;2.77;100.00;100308.75;5045338;28;20049;-63
2021/04/11 00:10:23;;;;;;;20.80;10.95;;;;;;;2.81;100.00;100308.38;5045527;28;20474;-63
2021/04/11 00:12:49;;;;;;;19.02;10.10;;;;;;;2.83;100.00;100308.22;5048215;28;20438;-63
2021/04/11 00:15:17;;;;;;;21.88;11.23;;;;;;;2.81;100.00;100310.13;5047140;28;20049;-63
2021/04/11 00:17:44;;;;;;;18.40;10.13;;;;;;;2.80;100.00;100308.50;5043874;28;20045;-63
2021/04/11 00:20:12;;;;;;;20.40;11.05;;;;;;;2.79;100.00;100320.00;5044103;28;20056;-64
2021/04/11 00:22:39;;;;;;;24.02;12.40;;;;;;;2.74;100.00;100329.13;5048027;28;20445;-63
2021/04/11 00:25:09;;;;;;;21.27;10.68;;;;;;;2.77;100.00;100324.56;5047867;28;20326;-64
2021/04/11 00:27:36;;;;;;;23.98;11.52;;;;;;;2.77;100.00;100320.13;5046808;28;20084;-63
2021/04/11 00:30:04;;;;;;;25.35;12.98;;;;;;;2.72;100.00;100327.56;5045773;28;20083;-63
2021/04/11 00:32:30;;;;;;;26.10;12.93;;;;;;;2.71;100.00;100328.53;5045867;28;20452;-63
2021/04/11 00:34:57;;;;;;;26.08;13.60;;;;;;;2.73;100.00;100337.16;5048991;28;20053;-63
2021/04/11 00:37:24;;;;;;;23.88;12.88;;;;;;;2.67;100.00;100327.94;5046798;28;20045;-63
2021/04/11 00:39:51;;;;;;;22.42;11.40;;;;;;;2.63;100.00;100318.59;5044971;28;20049;-63
2021/04/11 00:42:25;;;;;;;22.90;12.82;;;;;;;2.52;100.00;100313.34;5048644;28;20049;-63
2021/04/11 00:45:05;;;;;;;24.85;13.02;;;;;;;2.50;100.00;100317.91;5046732;28;20041;-63
2021/04/11 00:47:32;;;;;;;24.95;13.15;;;;;;;2.41;100.00;100314.22;5045477;28;20037;-63
2021/04/11 00:50:04;;;;;;;22.60;11.52;;;;;;;2.42;100.00;100305.34;5040756;28;20144;-63
2021/04/11 00:52:33;;;;;;;22.15;11.32;;;;;;;2.41;100.00;100304.50;5042923;28;20045;-63
2021/04/11 00:55:00;;;;;;;18.42;9.57;;;;;;;2.48;100.00;100296.09;5048813;28;20326;-64
2021/04/11 00:57:28;;;;;;;14.48;7.22;;;;;;;2.45;100.00;100294.53;5046857;28;20048;-63
2021/04/11 00:59:55;;;;;;;16.80;9.32;;;;;;;2.45;100.00;100297.19;5046544;28;20044;-64
2021/04/11 01:02:22;;;;;;;15.02;7.07;;;;;;;2.38;100.00;100290.72;5044679;28;20045;-63
2021/04/11 01:04:49;;;;;;;15.50;8.63;;;;;;;2.38;100.00;100294.22;5048160;28;20128;-63
2021/04/11 01:07:16;;;;;;;14.63;8.05;;;;;;;2.38;100.00;100302.13;5045726;28;20336;-63
2021/04/11 01:09:46;;;;;;;18.15;9.75;;;;;;;2.41;100.00;100308.97;5045554;28;20343;-63
2021/04/11 01:12:16;;;;;;;21.70;10.05;;;;;;;2.36;100.00;100319.03;5042765;28;20064;-63
2021/04/11 01:14:45;;;;;;;23.73;11.80;;;;;;;2.32;100.00;100330.75;5044965;28;20052;-63
2021/04/11 01:17:16;;;;;;;24.30;12.68;;;;;;;2.28;100.00;100332.78;5042364;28;20057;-64
2021/04/11 01:19:44;;;;;;;24.65;12.82;;;;;;;2.31;100.00;100329.06;5042310;28;20075;-63
2021/04/11 01:22:19;;;;;;;28.35;10.93;;;;;;;2.34;100.00;100339.38;5046526;28;20044;-63
2021/04/11 01:24:49;;;;;;;25.40;12.90;;;;;;;2.32;100.00;100338.66;5044936;28;20041;-64
2021/04/11 01:27:18;;;;;;;26.67;12.93;;;;;;;2.30;100.00;100338.78;5042027;28;20096;-63
2021/04/11 01:29:46;;;;;;;29.25;13.25;;;;;;;2.33;100.00;100340.34;5042170;28;20050;-64
2021/04/11 01:32:14;;;;;;;28.58;13.63;;;;;;;2.28;100.00;100331.97;5044796;28;20048;-63
2021/04/11 01:34:42;;;;;;;28.58;14.68;;;;;;;2.31;100.00;100324.66;5045529;28;20045;-63
2021/04/11 01:37:12;;;;;;;31.27;14.63;;;;;;;2.32;100.00;100320.22;5047366;28;20049;-64
2021/04/11 01:39:41;;;;;;;25.42;14.70;;;;;;;2.25;100.00;100317.22;5044605;28;20045;-63
2021/04/11 01:42:11;;;;;;;31.80;17.35;;;;;;;2.27;100.00;100330.28;5049085;28;20067;-63
2021/04/11 01:44:41;;;;;;;26.48;12.63;;;;;;;2.20;100.00;100332.56;5050116;28;20441;-63
2021/04/11 01:47:09;;;;;;;23.38;10.48;;;;;;;2.22;100.00;100349.91;5048950;28;20133;-63
2021/04/11 01:49:36;;;;;;;21.63;10.50;;;;;;;2.22;100.00;100343.81;5050925;28;20356;-63
2021/04/11 01:52:07;;;;;;;33.65;18.70;;;;;;;2.18;100.00;100345.00;5050140;28;20583;-62
2021/04/11 01:54:35;;;;;;;28.05;13.13;;;;;;;2.23;100.00;100346.34;5046029;28;20038;-62
2021/04/11 01:57:05;;;;;;;34.78;16.85;;;;;;;2.19;100.00;100351.97;5050588;28;20051;-62
2021/04/11 01:59:33;;;;;;;39.03;18.25;;;;;;;2.15;100.00;100342.63;5042891;28;20535;-63
2021/04/11 02:02:01;;;;;;;35.28;15.68;;;;;;;2.18;100.00;100355.56;5046423;28;20056;-62
2021/04/11 02:04:28;;;;;;;32.35;15.68;;;;;;;2.13;100.00;100348.03;5045112;28;20099;-62
2021/04/11 02:06:58;;;;;;;36.80;16.20;;;;;;;2.24;100.00;100337.47;5045803;28;20056;-62
2021/04/11 02:09:27;;;;;;;34.10;16.58;;;;;;;2.24;100.00;100339.28;5046247;28;20041;-62
2021/04/11 02:11:55;;;;;;;35.28;15.98;;;;;;;2.17;100.00;100340.69;5044316;28;20048;-62
2021/04/11 02:14:22;;;;;;;37.92;17.90;;;;;;;2.15;100.00;100343.47;5044377;28;20421;-62
2021/04/11 02:16:50;;;;;;;45.85;19.90;;;;;;;2.17;100.00;100348.59;5048841;28;20055;-63
2021/04/11 02:19:20;;;;;;;46.83;25.55;;;;;;;2.03;100.00;100329.47;5046354;28;20037;-61
2021/04/11 02:21:51;;;;;;;44.08;19.77;;;;;;;2.09;100.00;100351.03;5047918;28;20056;-62
2021/04/11 02:24:18;;;;;;;38.83;17.08;;;;;;;2.05;100.00;100343.34;5044989;28;20045;-62
2021/04/11 02:26:45;;;;;;;38.10;20.50;;;;;;;2.02;100.00;100351.47;5046351;28;20040;-62
2021/04/11 02:29:16;;;;;;;33.53;16.45;;;;;;;2.02;100.00;100362.00;5045263;28;20046;-61
2021/04/11 02:31:43;;;;;;;28.38;13.43;;;;;;;2.05;100.00;100361.78;5046853;28;20048;-63
2021/04/11 02:34:14;;;;;;;30.83;13.60;;;;;;;2.00;100.00;100363.94;5046246;28;20132;-62
2021/04/11 02:36:43;;;;;;;24.58;9.48;;;;;;;2.01;100.00;100365.63;5044875;28;20045;-63
2021/04/11 02:39:12;;;;;;;24.20;11.07;;;;;;;2.04;100.00;100365.38;5043031;28;20033;-64
2021/04/11 02:41:40;;;;;;;34.45;13.80;;;;;;;1.97;100.00;100371.22;5044259;28;20056;-63
2021/04/11 02:44:07;;;;;;;34.83;16.95;;;;;;;1.94;100.00;100366.19;5048538;28;20045;-62
2021/04/11 02:46:34;;;;;;;35.17;14.30;;;;;;;1.96;100.00;100367.78;5045781;28;20045;-63
2021/04/11 02:49:03;;;;;;;28.83;12.52;;;;;;;2.00;100.00;100368.34;5044170;28;20124;-62
2021/04/11 02:51:33;;;;;;;29.83;14.50;;;;;;;2.00;100.00;100365.72;5044260;28;20519;-62
2021/04/11 02:54:01;;;;;;;31.38;14.30;;;;;;;1.97;100.00;100364.19;5042878;28;20045;-64
2021/04/11 02:56:28;;;;;;;30.27;15.48;;;;;;;1.97;100.00;100372.09;5046547;28;20416;-62
2021/04/11 02:58:56;;;;;;;35.47;14.98;;;;;;;1.98;100.00;100365.84;5042409;28;20040;-62
2021/04/11 03:01:28;;;;;;;27.88;13.15;;;;;;;1.96;100.00;100370.41;5043685;28;20049;-62
2021/04/11 03:03:56;;;;;;;28.90;15.35;;;;;;;1.98;100.00;100365.84;5042520;28;20052;-63
2021/04/11 03:06:25;;;;;;;25.42;11.18;;;;;;;1.97;100.00;100371.22;5044451;28;20447;-63
2021/04/11 03:08:56;;;;;;;26.95;11.35;;;;;;;2.03;100.00;100383.94;5043758;28;20048;-63
2021/04/11 03:11:27;;;;;;;24.63;10.90;;;;;;;2.03;100.00;100389.22;5046460;28;20045;-62
2021/04/11 03:13:55;;;;;;;24.05;12.20;;;;;;;1.96;100.00;100388.00;5044557;28;20341;-63
2021/04/11 03:16:22;;;;;;;21.23;10.43;;;;;;;2.04;100.00;100385.59;5046050;28;20333;-64
2021/04/11 03:18:50;;;;;;;25.67;13.82;;;;;;;1.96;100.00;100385.38;5041655;28;20060;-63
2021/04/11 03:21:16;;;;;;;15.93;8.38;;;;;;;2.00;100.00;100392.91;5039547;28;20069;-63
2021/04/11 03:23:43;;;;;;;19.73;8.55;;;;;;;2.02;100.00;100398.91;5044187;28;20057;-63
2021/04/11 03:26:17;;;;;;;20.10;9.82;;;;;;;1.98;100.00;100407.16;5049329;28;20341;-63
2021/04/11 03:28:48;;;;;;;19.52;10.38;;;;;;;1.99;100.00;100403.56;5039306;28;20045;-63
2021/04/11 03:31:18;;;;;;;22.17;10.38;;;;;;;1.98;100.00;100401.88;5046825;28;20306;-63
2021/04/11 03:33:47;;;;;;;21.13;11.13;;;;;;;1.94;100.00;100419.69;5044378;28;20041;-63
2021/04/11 03:36:15;;;;;;;19.77;9.93;;;;;;;1.99;100.00;100414.94;5046960;28;20040;-63
2021/04/11 03:38:43;;;;;;;12.38;5.75;;;;;;;2.05;100.00;100411.81;5046006;28;20048;-63
2021/04/11 03:41:10;;;;;;;20.48;9.57;;;;;;;1.99;100.00;100414.94;5047864;28;20052;-63
2021/04/11 03:43:41;;;;;;;19.48;9.27;;;;;;;1.98;100.00;100407.97;5049885;28;20048;-63
2021/04/11 03:46:14;;;;;;;14.73;7.07;;;;;;;2.02;100.00;100405.97;5046774;28;20045;-63
2021/04/11 03:48:44;;;;;;;18.50;9.30;;;;;;;2.05;100.00;100398.66;5048480;28;20044;-63
2021/04/11 03:51:15;;;;;;;18.92;7.93;;;;;;;2.04;100.00;100417.22;5048158;28;20121;-63
2021/04/11 03:53:46;;;;;;;17.85;9.15;;;;;;;2.10;100.00;100429.06;5045990;28;20037;-63
2021/04/11 03:56:17;;;;;;;19.40;10.65;;;;;;;2.05;100.00;100432.91;5044498;28;20049;-63
2021/04/11 03:58:47;;;;;;;20.15;7.65;;;;;;;2.10;100.00;100400.94;5047253;28;20045;-63
2021/04/11 04:01:16;;;;;;;16.40;8.45;;;;;;;2.12;100.00;100414.81;5048524;28;20417;-63
2021/04/11 04:03:45;;;;;;;17.90;9.35;;;;;;;2.13;100.00;100415.69;5043732;28;20053;-63
2021/04/11 04:06:18;;;;;;;20.02;10.25;;;;;;;2.15;100.00;100425.13;5046269;28;20131;-63
2021/04/11 04:08:45;;;;;;;17.15;7.88;;;;;;;2.18;100.00;100435.44;5046671;28;20443;-63
2021/04/11 04:11:21;;;;;;;22.38;11.45;;;;;;;2.17;100.00;100438.19;5044218;28;20037;-63
2021/04/11 04:14:02;;;;;;;16.05;9.02;;;;;;;2.17;100.00;100438.19;5046229;28;20057;-63
2021/04/11 04:16:37;;;;;;;16.95;8.18;;;;;;;2.19;100.00;100449.47;5047595;28;20451;-63
2021/04/11 04:19:25;;;;;;;22.00;11.77;;;;;;;2.21;100.00;100447.53;5047252;28;20129;-63
2021/04/11 04:22:04;;;;;;;19.75;9.20;;;;;;;2.22;100.00;100451.84;5047385;28;20068;-63
2021/04/11 04:24:38;;;;;;;22.10;12.20;;;;;;;2.18;100.00;100451.25;5045336;28;20045;-63
2021/04/11 04:27:29;;;;;;;18.73;10.53;;;;;;;2.19;100.00;100447.66;5048982;28;20128;-64
2021/04/11 04:30:15;;;;;;;20.55;12.63;;;;;;;2.20;100.00;100454.59;5041079;28;20047;-63
2021/04/11 04:33:17;;;;;;;16.63;9.63;;;;;;;2.26;100.00;100463.84;5044973;28;20052;-63
2021/04/11 04:35:48;;;;;;;10.25;5.63;;;;;;;2.28;100.00;100461.91;5034435;28;20453;-62
2021/04/11 04:38:23;;;;;;;11.70;6.13;;;;;;;2.32;100.00;100457.25;5048092;28;20072;-63
2021/04/11 04:41:02;;;;;;;13.75;6.68;;;;;;;2.32;100.00;100455.44;5045571;28;20045;-64
2021/04/11 04:43:31;;;;;;;13.55;7.45;;;;;;;2.28;100.00;100469.81;5050305;28;20734;-63
2021/04/11 04:46:08;;;;;;;12.90;7.55;;;;;;;2.31;100.00;100472.25;5044214;28;20048;-63
2021/04/11 04:48:37;;;;;;;12.85;7.75;;;;;;;2.30;100.00;100470.56;5047471;28;20511;-63
2021/04/11 04:51:06;;;;;;;13.48;7.53;;;;;;;2.24;100.00;100476.31;5047084;28;20088;-64
2021/04/11 04:53:37;;;;;;;13.95;7.40;;;;;;;2.26;100.00;100479.66;5048406;28;20045;-64
2021/04/11 04:56:06;;;;;;;12.63;7.50;;;;;;;2.27;100.00;100477.84;5045079;28;20053;-64
2021/04/11 04:58:36;;;;;;;12.40;5.95;;;;;;;2.30;100.00;100486.34;5044948;28;20053;-64
2021/04/11 05:01:08;;;;;;;13.25;5.50;;;;;;;2.31;100.00;100497.72;5047877;28;20037;-65
2021/04/11 05:03:40;;;;;;;8.57;3.78;;;;;;;2.31;100.00;100506.50;5043408;28;20053;-65
2021/04/11 05:06:11;;;;;;;9.38;5.65;;;;;;;2.30;100.00;100507.44;5045652;28;20053;-65
2021/04/11 05:08:41;;;;;;;10.73;5.13;;;;;;;2.29;100.00;100516.28;5043032;28;20052;-65
2021/04/11 05:11:14;;;;;;;8.68;4.93;;;;;;;2.33;100.00;100524.81;5041636;28;20052;-66
2021/04/11 05:13:45;;;;;;;7.95;4.03;;;;;;;2.35;100.00;100518.47;5044441;28;20041;-67
2021/04/11 05:16:16;;;;;;;9.73;5.63;;;;;;;2.29;100.00;100524.19;5045228;28;20613;-68
2021/04/11 05:18:46;;;;;;;11.18;6.40;;;;;;;2.26;100.00;100520.97;5038035;28;20521;-67
2021/04/11 05:21:15;;;;;;;8.60;5.38;;;;;;;2.29;100.00;100510.19;5042835;28;20523;-67
2021/04/11 05:23:46;;;;;;;9.45;5.20;;;;;;;2.35;100.00;100512.34;5044148;28;20045;-64
2021/04/11 05:26:18;;;;;;;11.95;7.35;;;;;;;2.31;100.00;100514.41;5044604;28;20581;-65
2021/04/11 05:28:51;;;;;;;10.63;4.95;;;;;;;2.28;100.00;100519.88;5045706;28;20045;-64
2021/04/11 05:31:21;;;;;;;7.82;3.78;;;;;;;2.36;100.00;100522.78;5043315;28;20033;-64
2021/04/11 05:33:49;;;;;;;9.45;4.45;;;;;;;2.30;100.00;100525.88;5046949;28;20045;-64
2021/04/11 05:36:24;;;;;;;11.30;6.47;;;;;;;2.33;100.00;100528.28;5044739;28;20056;-64
2021/04/11 05:38:59;;;;;;;11.80;6.75;;;;;;;2.34;100.00;100529.13;5044510;28;20041;-64
2021/04/11 05:41:33;;;;;;;11.35;5.47;;;;;;;2.34;100.00;100529.97;5049442;28;20333;-64
2021/04/11 05:44:04;;;;;;;13.10;5.63;;;;;;;2.39;100.00;100530.44;5041491;28;20049;-64
2021/04/11 05:46:36;;;;;;;11.23;5.97;;;;;;;2.43;100.00;100538.97;5041052;28;20049;-65
2021/04/11 05:49:07;;;;;;;11.00;5.38;;;;;;;2.50;100.00;100544.63;5043902;28;20069;-65
2021/04/11 05:51:37;;;;;;;8.80;4.25;;;;;;;2.55;100.00;100545.09;5048206;28;20059;-65
2021/04/11 05:54:07;;;;;;;7.13;4.35;;;;;;;2.58;100.00;100561.53;5046355;28;20040;-65
2021/04/11 05:56:38;;;;;;;10.57;6.45;;;;;;;2.51;100.00;100552.41;5045430;28;20065;-65
2021/04/11 05:59:07;;;;;;;8.60;3.65;;;;;;;2.63;100.00;100566.44;5040522;28;20080;-63
2021/04/11 06:01:39;;;;;;;6.18;3.08;;;;;;;2.62;100.00;100559.47;5040070;28;20046;-62
2021/04/11 06:04:09;;;;;;;11.20;5.13;;;;;;;2.59;100.00;100562.34;5042960;28;20053;-61
2021/04/11 06:06:42;;;;;;;7.43;4.82;;;;;;;2.60;100.00;100556.13;5044793;28;20048;-61
2021/04/11 06:09:14;;;;;;;8.05;3.97;;;;;;;2.55;100.00;100555.63;5044020;28;20048;-62
2021/04/11 06:11:45;;;;;;;6.15;3.90;;;;;;;2.48;100.00;100562.34;5044556;28;20044;-60
2021/04/11 06:14:15;;;;;;;8.77;4.00;;;;;;;2.51;100.00;100564.72;5044977;28;20041;-61
2021/04/11 06:16:43;;;;;;;7.07;4.20;;;;;;;2.53;100.00;100571.56;5044866;28;20055;-60
2021/04/11 06:19:10;;;;;;;9.73;3.75;;;;;;;2.54;100.00;100578.53;5040455;28;20045;-61
2021/04/11 06:21:48;;;;;;;8.52;3.55;;;;;;;2.55;100.00;100577.59;5046745;28;20406;-61
2021/04/11 06:24:28;;;;;;;7.72;4.07;;;;;;;2.62;100.00;100587.66;5044293;28;20112;-61
2021/04/11 06:27:02;;;;;;;9.95;3.05;;;;;;;2.68;100.00;100589.81;5047179;28;20137;-61
2021/04/11 06:29:33;;;;;;;8.13;3.58;;;;;;;2.68;100.00;100590.66;5043046;28;20301;-61
2021/04/11 06:32:04;;;;;;;5.80;3.40;;;;;;;2.76;100.00;100587.44;5042347;28;20040;-61
2021/04/11 06:34:34;;;;;;;4.40;2.95;;;;;;;2.78;100.00;100589.94;5045053;28;20600;-61
2021/04/11 06:37:03;;;;;;;8.48;2.95;;;;;;;2.86;100.00;100593.66;5040120;28;20041;-61
2021/04/11 06:39:34;;;;;;;8.20;3.60;;;;;;;2.71;100.00;100590.44;5039025;28;20353;-61
2021/04/11 06:42:12;;;;;;;10.15;2.92;;;;;;;2.77;100.00;100599.66;5045376;28;20052;-61
2021/04/11 06:44:48;;;;;;;6.00;2.83;;;;;;;2.79;100.00;100605.66;5041380;28;20260;-61
2021/04/11 06:47:46;;;;;;;5.05;2.22;;;;;;;2.90;100.00;100618.03;5046817;28;20046;-61
2021/04/11 06:50:43;;;;;;;4.80;2.85;;;;;;;2.88;100.00;100612.88;5043090;28;20342;-61
2021/04/11 06:53:43;;;;;;;8.57;3.05;;;;;;;2.98;100.00;100622.69;5042102;28;20040;-61
2021/04/11 06:56:39;;;;;;;5.63;2.15;;;;;;;2.99;100.00;100633.16;5027702;28;20463;-61
2021/04/11 06:59:19;;;;;;;8.55;3.10;;;;;;;2.98;100.00;100639.38;5033728;28;20060;-61
2021/04/11 07:02:10;;;;;;;7.15;2.97;;;;;;;3.12;100.00;100640.09;5042160;28;20049;-61
2021/04/11 07:05:07;;;;;;;6.70;2.70;;;;;;;3.25;100.00;100646.94;5041676;28;20136;-61
2021/04/11 07:08:21;;;;;;;5.18;2.83;;;;;;;3.35;100.00;100647.06;5043303;28;20037;-61
2021/04/11 07:11:27;;;;;;;4.82;2.95;;;;;;;3.32;100.00;100649.97;5040103;28;20600;-61
2021/04/11 07:14:34;;;;;;;6.28;2.28;;;;;;;3.42;100.00;100645.63;5030494;28;20131;-61
2021/04/11 07:17:10;;;;;;;9.77;2.40;;;;;;;3.37;100.00;100644.31;5039230;28;20057;-61
2021/04/11 07:20:02;;;;;;;6.20;2.47;;;;;;;3.48;100.00;100652.22;5040972;28;20532;-62
2021/04/11 07:23:15;;;;;;;8.80;4.57;;;;;;;3.38;100.00;100657.38;5002049;28;20122;-62
2021/04/11 07:25:51;;;;;;;10.15;3.00;;;;;;;3.43;100.00;100649.09;5044144;28;20136;-61
2021/04/11 07:28:21;;;;;;;;;;;;;;;3.56;100.00;100649.81;5040601;28;20131;-62
2021/04/11 07:30:50;;;;;;;8.80;1.75;;;;;;;3.69;100.00;100647.03;5043632;28;19920;-62
2021/04/11 07:34:02;;;;;;;6.60;2.20;;;;;;;3.74;100.00;100646.66;5042600;28;20083;-62
2021/04/11 07:36:39;;;;;;;5.78;1.92;;;;;;;3.74;100.00;100641.38;4999580;28;20045;-62
2021/04/11 07:39:46;;;;;;;3.72;2.45;;;;;;;3.64;100.00;100643.91;5038993;28;20048;-62
2021/04/11 07:42:21;;;;;;;;;;;;;;;3.64;100.00;100648.38;5041224;28;20048;-62
2021/04/11 07:45:07;;;;;;;5.00;2.15;;;;;;;3.62;100.00;100659.88;5040037;28;19951;-62
2021/04/11 07:47:46;;;;;;;10.18;2.83;;;;;;;3.57;100.00;100640.09;5035452;28;20056;-62
2021/04/11 07:50:24;;;;;;;6.15;2.30;;;;;;;4.21;100.00;100657.84;5040310;28;20044;-62
2021/04/11 07:53:12;;;;;;;7.20;2.17;;;;;;;4.26;100.00;100666.22;5043093;28;20049;-62
2021/04/11 07:55:47;;;;;;;6.30;2.28;;;;;;;4.55;100.00;100675.34;5043863;28;20049;-62
2021/04/11 07:58:25;;;;;;;5.65;2.00;;;;;;;4.76;100.00;100678.03;5037138;28;20042;-63
2021/04/11 08:01:04;;;;;;;5.13;1.80;;;;;;;5.11;100.00;100675.03;5041550;28;20048;-63
2021/04/11 08:03:53;;;;;;;5.22;1.90;;;;;;;4.92;100.00;100669.63;5041907;28;20429;-63
2021/04/11 08:06:44;;;;;;;5.50;1.92;;;;;;;4.62;100.00;100679.16;5039375;28;20071;-63
2021/04/11 08:09:18;;;;;;;3.25;2.10;;;;;;;4.60;100.00;100687.22;5039182;28;20045;-63
2021/04/11 08:12:10;;;;;;;6.53;2.03;;;;;;;4.54;100.00;100697.50;5043350;28;20448;-63
2021/04/11 08:14:42;;;;;;;7.43;1.90;;;;;;;4.62;100.00;100695.91;5044665;28;20127;-63
2021/04/11 08:17:23;;;;;;;4.57;1.83;;;;;;;4.74;100.00;100680.81;5039318;28;20506;-63
2021/04/11 08:20:05;;;;;;;5.45;1.88;;;;;;;4.82;100.00;100688.94;5040927;28;20075;-63
2021/04/11 08:23:00;;;;;;;5.30;2.25;;;;;;;5.11;100.00;100684.78;5043013;28;20045;-63
2021/04/11 08:25:37;;;;;;;3.72;1.38;;;;;;;4.82;100.00;100685.47;5130851;22;20493;-54
2021/04/11 08:28:42;;;;;;;3.45;1.77;;;;;;;5.11;100.00;100688.28;5059809;28;20086;-56
2021/04/11 08:31:44;;;;;;;4.22;2.65;;;;;;;4.90;100.00;100706.81;5057012;28;20036;-55
2021/04/11 08:34:36;;;;;;;3.83;1.77;;;;;;;4.62;100.00;100695.91;5048608;28;20115;-55
2021/04/11 08:37:44;;;;;;;3.45;1.38;;;;;;;4.64;100.00;100703.72;5061440;28;20064;-56
2021/04/11 08:40:17;;;;;;;3.78;1.55;;;;;;;4.62;100.00;100705.63;5022360;28;20041;-54
2021/04/11 08:43:06;;;;;;;2.70;1.73;;;;;;;4.68;100.00;100710.44;5060771;28;20056;-55
2021/04/11 08:45:50;;;;;;;5.28;2.00;;;;;;;4.62;100.00;100710.91;5057998;28;20131;-55
2021/04/11 08:48:40;;;;;;;3.45;1.70;;;;;;;4.60;100.00;100728.72;5052784;28;20450;-55
2021/04/11 08:51:14;;;;;;;2.60;1.67;;;;;;;4.58;100.00;100735.94;5060973;28;20045;-54
2021/04/11 08:53:49;;;;;;;5.63;2.00;;;;;;;4.42;100.00;100725.78;5059718;28;20052;-56
2021/04/11 08:56:20;;;;;;;3.30;1.65;;;;;;;4.57;100.00;100721.88;5055890;28;20040;-56
2021/04/11 08:58:58;;;;;;;4.30;1.52;;;;;;;4.59;100.00;100727.91;5060500;28;20051;-55
2021/04/11 09:01:36;;;;;;;4.38;1.55;;;;;;;4.50;100.00;100727.81;5058491;28;20041;-55
2021/04/11 09:04:15;;;;;;;7.60;1.88;;;;;;;4.43;100.00;100722.19;5061092;28;20450;-55
2021/04/11 09:07:05;;;;;;;4.15;1.63;;;;;;;4.30;100.00;100727.63;5059183;28;20088;-54
2021/04/11 09:09:43;;;;;;;2.75;1.60;;;;;;;4.32;100.00;100741.56;5056496;28;20048;-55
2021/04/11 09:12:18;;;;;;;5.32;1.70;;;;;;;4.37;100.00;100744.66;5061240;28;20112;-56
2021/04/11 09:14:55;;;;;;;4.38;1.90;;;;;;;4.35;100.00;100754.50;5060561;28;20048;-56
2021/04/11 09:17:36;;;;;;;5.15;2.00;;;;;;;4.21;100.00;100760.94;5062850;28;20217;-55
2021/04/11 09:20:12;;;;;;;4.80;1.90;;;;;;;4.38;100.00;100767.50;5059559;28;20079;-53
2021/04/11 09:22:52;;;;;;;2.35;1.05;;;;;;;4.54;100.00;100766.28;5062029;28;20176;-55
2021/04/11 09:25:22;;;;;;;11.55;3.00;;;;;;;4.58;100.00;100771.19;5059580;28;20048;-53
2021/04/11 09:28:36;;;;;;;2.72;1.48;;;;;;;4.94;100.00;100769.09;5059789;28;20056;-55
2021/04/11 09:31:15;;;;;;;6.53;1.60;;;;;;;5.32;100.00;100782.75;5059020;28;20048;-56
2021/04/11 09:34:06;;;;;;;6.95;2.03;;;;;;;5.29;100.00;100789.13;5063407;28;20044;-54
2021/04/11 09:36:40;;;;;;;4.65;1.95;;;;;;;5.64;100.00;100777.34;5062752;28;20051;-56
2021/04/11 09:39:23;;;;;;;5.00;1.85;;;;;;;5.92;100.00;100779.41;5060301;28;20048;-56
2021/04/11 09:42:11;;;;;;;3.80;1.77;;;;;;;5.53;100.00;100795.97;5066743;28;20049;-56
2021/04/11 09:44:51;;;;;;;4.43;1.60;;;;;;;6.28;100.00;100786.00;5065079;28;20048;-56
2021/04/11 09:47:31;;;;;;;4.95;2.05;;;;;;;6.67;100.00;100790.53;5059211;28;20044;-57
2021/04/11 09:50:07;;;;;;;3.40;1.48;;;;;;;5.62;100.00;100781.09;5056616;28;20045;-56
2021/04/11 09:52:54;;;;;;;5.07;1.52;;;;;;;6.03;100.00;100792.63;5060212;28;20047;-56
2021/04/11 09:55:25;;;;;;;2.33;1.38;;;;;;;5.68;100.00;100797.31;5060756;28;20212;-56
2021/04/11 09:58:10;;;;;;;3.63;2.00;;;;;;;5.72;100.00;100799.69;5057797;28;20114;-57
2021/04/11 10:00:39;;;;;;;4.63;1.40;;;;;;;6.12;100.00;100797.09;5055919;28;20305;-57
2021/04/11 10:03:29;;;;;;;1.45;1.15;;;;;;;6.87;100.00;100797.50;5058382;28;20048;-56
2021/04/11 10:06:08;;;;;;;5.80;1.15;;;;;;;6.39;100.00;100795.63;5032218;28;20066;-56
2021/04/11 10:08:52;;;;;;;5.13;1.92;;;;;;;5.44;100.00;100789.63;5059810;28;20043;-56
2021/04/11 10:11:30;;;;;;;5.18;1.40;;;;;;;5.32;100.00;100817.19;5062474;28;20048;-53
2021/04/11 10:14:21;;;;;;;3.92;1.98;;;;;;;5.21;100.00;100812.78;5062966;28;20044;-56
2021/04/11 10:16:57;;;;;;;5.85;1.65;;;;;;;5.16;100.00;100823.75;5063948;28;20347;-56
2021/04/11 10:19:50;;;;;;;3.53;1.65;;;;;;;5.15;100.00;100816.78;5061634;28;20045;-55
2021/04/11 10:22:27;;;;;;;8.50;2.97;;;;;;;4.90;100.00;100825.06;5060580;28;20048;-56
2021/04/11 10:25:03;;;;;;;5.75;2.33;;;;;;;5.20;100.00;100826.97;5058897;28;20044;-55
2021/04/11 10:27:37;;;;;;;13.30;2.40;;;;;;;5.37;100.00;100814.13;5059111;28;20051;-54
2021/04/11 10:30:06;;;;;;;4.97;1.80;;;;;;;5.88;100.00;100828.38;5059135;28;20043;-56
2021/04/11 10:32:39;;;;;;;5.45;2.53;;;;;;;6.05;100.00;100835.72;5060412;28;20044;-55
2021/04/11 10:35:11;;;;;;;8.93;3.55;;;;;;;6.21;100.00;100835.25;5062727;28;20098;-54
2021/04/11 10:37:41;;;;;;;5.57;2.40;;;;;;;5.87;100.00;100835.50;5058715;28;20055;-56
2021/04/11 10:40:17;;;;;;;3.55;2.50;;;;;;;6.06;100.00;100828.63;5060696;28;20044;-56
2021/04/11 10:42:51;;;;;;;5.22;2.35;;;;;;;6.15;100.00;100828.66;5061743;28;20049;-56
2021/04/11 10:45:25;;;;;;;4.78;2.13;;;;;;;6.40;100.00;100839.75;5058579;28;20045;-56
2021/04/11 10:48:27;;;;;;;4.43;1.90;;;;;;;6.32;100.00;100839.59;5059352;28;20091;-54
2021/04/11 10:51:07;;;;;;;3.80;1.90;;;;;;;6.38;100.00;100844.38;5059469;28;20436;-56
2021/04/11 10:53:55;;;;;;;2.38;1.17;;;;;;;6.28;100.00;100844.34;5055389;28;20071;-54
2021/04/11 10:56:32;;;;;;;4.40;1.90;;;;;;;6.16;100.00;100837.44;5055483;28;20455;-57
2021/04/11 10:59:31;;;;;;;3.40;1.95;;;;;;;6.74;100.00;100842.06;5052987;28;20041;-56
2021/04/11 11:02:36;;;;;;;6.30;2.20;;;;;;;6.86;100.00;100848.94;5041500;28;20470;-56
2021/04/11 11:05:26;;;;;;;5.70;2.10;;;;;;;7.44;100.00;100849.91;5062344;28;20060;-56
2021/04/11 11:08:18;;;;;;;5.03;3.13;;;;;;;8.04;100.00;100844.31;5057553;28;20048;-56
2021/04/11 11:11:26;;;;;;;6.65;1.85;;;;;;;7.56;100.00;100839.97;5050232;28;20048;-56
2021/04/11 11:14:09;;;;;;;3.75;1.75;;;;;;;7.14;100.00;100827.84;5060189;28;20055;-56
2021/04/11 11:16:52;;;;;;;4.25;1.60;;;;;;;8.33;100.00;100843.31;5053315;28;20071;-56
2021/04/11 11:19:44;;;;;;;2.70;1.00;;;;;;;7.67;100.00;100841.59;5055385;28;20049;-57
2021/04/11 11:22:27;;;;;;;3.28;1.10;;;;;;;7.75;100.00;100855.88;5056506;28;20055;-56
2021/04/11 11:25:20;;;;;;;2.92;1.35;;;;;;;8.67;100.00;100856.06;5059291;28;20442;-56
2021/04/11 11:27:57;;;;;;;3.97;2.40;;;;;;;9.30;100.00;100863.16;5057728;28;20033;-55
2021/04/11 11:30:33;;;;;;;6.68;2.55;;;;;;;9.62;100.00;100856.41;5058252;28;21182;-56
2021/04/11 11:33:14;;;;;;;3.08;1.95;;;;;;;8.54;100.00;100861.75;5057825;28;20040;-56
2021/04/11 11:35:51;;;;;;;6.38;1.45;;;;;;;7.47;100.00;100867.38;5062074;28;20036;-56
2021/04/11 11:38:21;;;;;;;4.90;1.92;;;;;;;6.45;100.00;100869.38;5055960;28;20340;-55
2021/04/11 11:41:03;;;;;;;8.75;2.10;;;;;;;6.14;100.00;100874.72;5056256;28;20040;-55
2021/04/11 11:43:34;;;;;;;3.63;1.45;;;;;;;5.73;100.00;100879.06;5057921;28;20056;-56
2021/04/11 11:46:12;;;;;;;5.47;1.63;;;;;;;5.57;100.00;100898.06;5058156;28;20048;-54
2021/04/11 11:48:51;;;;;;;7.10;2.15;;;;;;;5.63;100.00;100902.03;5057438;28;20335;-56
2021/04/11 11:51:33;;;;;;;4.40;2.15;;;;;;;6.55;100.00;100891.47;5060168;28;20363;-55
2021/04/11 11:54:06;;;;;;;5.85;3.28;;;;;;;7.34;100.00;100894.25;5058015;28;20040;-54
2021/04/11 11:56:35;;;;;;;10.63;3.35;;;;;;;6.67;100.00;100894.03;5060371;28;20060;-56
2021/04/11 11:59:05;;;;;;;5.05;2.15;;;;;;;7.50;100.00;100893.66;5060689;28;20044;-56